Time;durP1;ratioP1;P1;durP2;ratioP2;P2;SDS_P1;SDS_P2;PMS_P1;PMS_P2;Temp;Humidity;BMP_temperature;BMP_pressure;BME280_temperature;BME280_humidity;BME280_pressure;Samples;Min_cycle;Max_cycle;Signal;HPM_P1;HPM_P2
2021/10/18 00:01:54;;;;;;;;;;;;;;;;;;5023020;28;19933;-60
2021/10/18 00:04:21;;;;;;;;;;;;;;;;;;5029078;28;19929;-60
2021/10/18 00:06:47;;;;;;;;;;;;;;;;;;5028228;28;20397;-58
2021/10/18 00:09:14;;;;;;;;;;;;;;;;;;5028352;28;20412;-59
2021/10/18 00:11:41;;;;;;;;;;;;;;;;;;5026957;28;19948;-59
2021/10/18 00:14:08;;;;;;;;;;;;;;;;;;5029267;28;19929;-59
2021/10/18 00:16:35;;;;;;;;;;;;;;;;;;5029335;28;19925;-60
2021/10/18 00:19:02;;;;;;;;;;;;;;;;;;5027185;28;19976;-60
2021/10/18 00:21:29;;;;;;;;;;;;;;;;;;5027995;28;20377;-60
2021/10/18 00:23:56;;;;;;;;;;;;;;;;;;5029145;28;19978;-54
2021/10/18 00:26:23;;;;;;;;;;;;;;;;;;5029856;28;19932;-59
2021/10/18 00:28:50;;;;;;;;;;;;;;;;;;5027656;28;19925;-60
2021/10/18 00:31:19;;;;;;;;;;;;;;;;;;5032878;28;20301;-59
2021/10/18 00:33:46;;;;;;;;;;;;;;;;;;5032859;28;19929;-60
2021/10/18 00:36:13;;;;;;;;;;;;;;;;;;5033616;28;20428;-58
2021/10/18 00:38:40;;;;;;;;;;;;;;;;;;5032517;28;20309;-58
2021/10/18 00:41:07;;;;;;;;;;;;;;;;;;5031128;28;20207;-55
2021/10/18 00:43:34;;;;;;;;;;;;;;;;;;5031045;28;19932;-56
2021/10/18 00:46:00;;;;;;;;;;;;;;;;;;5033649;28;19932;-60
2021/10/18 00:48:27;;;;;;;;;;;;;;;;;;5032374;28;19933;-58
2021/10/18 00:50:56;;;;;;;;;;;;;;;;;;5029554;28;19925;-60
2021/10/18 00:53:23;;;;;;;;;;;;;;;;;;5031665;28;19960;-58
2021/10/18 00:55:50;;;;;;;;;;;;;;;;;;5033643;28;19925;-58
2021/10/18 00:58:17;;;;;;;;;;;;;;;;;;5030075;28;19932;-58
2021/10/18 01:00:44;;;;;;;;;;;;;;;;;;5029919;28;19925;-60
2021/10/18 01:03:10;;;;;;;;;;;;;;;;;;5031371;28;20316;-61
2021/10/18 01:05:41;;;;;;;;;;;;;;;;;;5033359;28;20332;-58
2021/10/18 01:08:08;;;;;;;;;;;;;;;;;;5031106;28;19944;-60
2021/10/18 01:10:34;;;;;;;;;;;;;;;;;;5030735;28;19932;-60
2021/10/18 01:13:01;;;;;;;;;;;;;;;;;;5031940;28;19944;-60
2021/10/18 01:15:28;;;;;;;;;;;;;;;;;;5033257;28;19925;-58
2021/10/18 01:17:55;;;;;;;;;;;;;;;;;;5032163;28;20311;-59
2021/10/18 01:20:22;;;;;;;;;;;;;;;;;;5030897;28;19925;-58
2021/10/18 01:22:49;;;;;;;;;;;;;;;;;;5030987;28;19936;-59
2021/10/18 01:25:16;;;;;;;;;;;;;;;;;;5032388;28;19925;-58
2021/10/18 01:27:43;;;;;;;;;;;;;;;;;;5027978;28;19926;-59
2021/10/18 01:30:10;;;;;;;;;;;;;;;;;;5028626;28;19925;-59
2021/10/18 01:32:37;;;;;;;;;;;;;;;;;;5031774;28;20312;-60
2021/10/18 01:35:04;;;;;;;;;;;;;;;;;;5032191;28;19952;-57
2021/10/18 01:37:31;;;;;;;;;;;;;;;;;;5031519;28;20173;-57
2021/10/18 01:39:58;;;;;;;;;;;;;;;;;;5031161;28;19936;-59
2021/10/18 01:42:25;;;;;;;;;;;;;;;;;;5030893;28;19925;-57
2021/10/18 01:44:52;;;;;;;;;;;;;;;;;;5030488;28;19925;-60
2021/10/18 01:47:19;;;;;;;;;;;;;;;;;;5030450;28;20285;-59
2021/10/18 01:49:46;;;;;;;;;;;;;;;;;;5029482;28;19925;-60
2021/10/18 01:52:13;;;;;;;;;;;;;;;;;;5032517;28;19926;-60
2021/10/18 01:54:40;;;;;;;;;;;;;;;;;;5029145;28;19932;-59
2021/10/18 01:57:07;;;;;;;;;;;;;;;;;;5031413;28;20008;-59
2021/10/18 01:59:34;;;;;;;;;;;;;;;;;;5025400;28;19925;-59
2021/10/18 02:02:01;;;;;;;;;;;;;;;;;;5028654;28;19948;-60
2021/10/18 02:04:28;;;;;;;;;;;;;;;;;;5029673;28;19931;-58
2021/10/18 02:06:55;;;;;;;;;;;;;;;;;;5028264;28;19925;-59
2021/10/18 02:09:22;;;;;;;;;;;;;;;;;;5029747;28;20023;-59
2021/10/18 02:11:49;;;;;;;;;;;;;;;;;;5030268;28;19928;-59
2021/10/18 02:14:16;;;;;;;;;;;;;;;;;;5029058;28;19929;-60
2021/10/18 02:16:43;;;;;;;;;;;;;;;;;;5030615;28;20385;-60
2021/10/18 02:19:09;;;;;;;;;;;;;;;;;;5029228;28;19925;-60
2021/10/18 02:21:36;;;;;;;;;;;;;;;;;;5029665;28;19932;-60
2021/10/18 02:24:03;;;;;;;;;;;;;;;;;;5029758;28;19925;-60
2021/10/18 02:26:30;;;;;;;;;;;;;;;;;;5030570;28;20027;-59
2021/10/18 02:28:57;;;;;;;;;;;;;;;;;;5026327;28;20324;-60
2021/10/18 02:31:24;;;;;;;;;;;;;;;;;;5023581;28;19944;-60
2021/10/18 02:33:51;;;;;;;;;;;;;;;;;;5031033;28;19925;-59
2021/10/18 02:36:18;;;;;;;;;;;;;;;;;;5027685;28;19933;-58
2021/10/18 02:38:45;;;;;;;;;;;;;;;;;;5027539;28;19925;-55
2021/10/18 02:41:12;;;;;;;;;;;;;;;;;;5028324;28;20377;-60
2021/10/18 02:43:39;;;;;;;;;;;;;;;;;;5030105;28;19956;-57
2021/10/18 02:46:08;;;;;;;;;;;;;;;;;;5028341;28;19992;-55
2021/10/18 02:48:35;;;;;;;;;;;;;;;;;;5027272;28;20289;-59
2021/10/18 02:51:02;;;;;;;;;;;;;;;;;;5024683;28;19925;-59
2021/10/18 02:53:29;;;;;;;;;;;;;;;;;;5028488;28;19936;-59
2021/10/18 02:55:56;;;;;;;;;;;;;;;;;;5027596;28;20297;-56
2021/10/18 02:58:23;;;;;;;;;;;;;;;;;;5028644;28;19952;-60
2021/10/18 03:00:50;;;;;;;;;;;;;;;;;;5026147;28;20352;-59
2021/10/18 03:03:17;;;;;;;;;;;;;;;;;;5030320;28;20301;-57
2021/10/18 03:05:44;;;;;;;;;;;;;;;;;;5030354;28;19932;-57
2021/10/18 03:08:11;;;;;;;;;;;;;;;;;;5030768;28;19925;-60
2021/10/18 03:10:40;;;;;;;;;;;;;;;;;;5026033;28;19929;-58
2021/10/18 03:13:07;;;;;;;;;;;;;;;;;;5031063;28;19926;-59
2021/10/18 03:15:34;;;;;;;;;;;;;;;;;;5031325;28;19925;-57
2021/10/18 03:18:01;;;;;;;;;;;;;;;;;;5031071;28;20346;-58
2021/10/18 03:20:28;;;;;;;;;;;;;;;;;;5027869;28;20273;-57
2021/10/18 03:22:56;;;;;;;;;;;;;;;;;;5031227;28;20008;-57
2021/10/18 03:25:23;;;;;;;;;;;;;;;;;;5027940;28;19972;-57
2021/10/18 03:27:50;;;;;;;;;;;;;;;;;;5027928;28;19934;-55
2021/10/18 03:30:17;;;;;;;;;;;;;;;;;;5024735;28;20308;-58
2021/10/18 03:32:44;;;;;;;;;;;;;;;;;;5027821;28;19925;-56
2021/10/18 03:35:11;;;;;;;;;;;;;;;;;;5030080;28;19932;-57
2021/10/18 03:37:38;;;;;;;;;;;;;;;;;;5028641;28;19932;-56
2021/10/18 03:40:06;;;;;;;;;;;;;;;;;;5028545;28;20012;-59
2021/10/18 03:42:43;;;;;;;;;;;;;;;;;;;;;
2021/10/18 03:45:10;;;;;;;;;;;;;;;;;;5033900;28;19932;-68
2021/10/18 03:47:37;;;;;;;;;;;;;;;;;;5028337;28;19929;-68
2021/10/18 03:50:04;;;;;;;;;;;;;;;;;;5028275;28;19935;-68
2021/10/18 03:52:32;;;;;;;;;;;;;;;;;;5031060;28;19925;-67
2021/10/18 03:54:59;;;;;;;;;;;;;;;;;;5031233;28;20278;-67
2021/10/18 03:57:25;;;;;;;;;;;;;;;;;;5030751;28;19937;-68
2021/10/18 03:59:52;;;;;;;;;;;;;;;;;;5031121;28;19940;-67
2021/10/18 04:02:19;;;;;;;;;;;;;;;;;;5031436;28;19929;-67
2021/10/18 04:04:46;;;;;;;;;;;;;;;;;;5027272;28;20278;-67
2021/10/18 04:07:13;;;;;;;;;;;;;;;;;;5028516;28;20289;-67
2021/10/18 04:09:40;;;;;;;;;;;;;;;;;;5030795;28;19925;-67
2021/10/18 04:12:07;;;;;;;;;;;;;;;;;;5027023;28;20344;-67
2021/10/18 04:14:34;;;;;;;;;;;;;;;;;;5030533;28;19925;-67
2021/10/18 04:17:01;;;;;;;;;;;;;;;;;;5028126;28;19940;-68
2021/10/18 04:19:28;;;;;;;;;;;;;;;;;;5027616;28;19929;-67
2021/10/18 04:21:55;;;;;;;;;;;;;;;;;;5026295;28;19936;-68
2021/10/18 04:24:22;;;;;;;;;;;;;;;;;;5035744;28;19931;-66
2021/10/18 04:26:49;;;;;;;;;;;;;;;;;;5036812;28;19926;-68
2021/10/18 04:29:16;;;;;;;;;;;;;;;;;;5030887;28;19925;-66
2021/10/18 04:31:43;;;;;;;;;;;;;;;;;;5030030;28;19925;-67
2021/10/18 04:34:10;;;;;;;;;;;;;;;;;;5032484;28;20280;-67
2021/10/18 04:36:37;;;;;;;;;;;;;;;;;;5032768;28;19925;-67
2021/10/18 04:39:04;;;;;;;;;;;;;;;;;;5029096;28;19964;-67
2021/10/18 04:41:31;;;;;;;;;;;;;;;;;;5028670;28;19929;-65
2021/10/18 04:43:58;;;;;;;;;;;;;;;;;;5027364;28;20296;-66
2021/10/18 04:46:25;;;;;;;;;;;;;;;;;;5025069;28;19929;-66
2021/10/18 04:48:52;;;;;;;;;;;;;;;;;;5027562;28;19925;-66
2021/10/18 04:51:19;;;;;;;;;;;;;;;;;;5030137;28;19925;-66
2021/10/18 04:53:46;;;;;;;;;;;;;;;;;;5029490;28;19925;-67
2021/10/18 04:56:13;;;;;;;;;;;;;;;;;;5028087;28;19925;-66
2021/10/18 04:58:40;;;;;;;;;;;;;;;;;;5028677;28;20405;-66
2021/10/18 05:01:07;;;;;;;;;;;;;;;;;;5028172;28;20640;-68
2021/10/18 05:03:34;;;;;;;;;;;;;;;;;;5029656;28;19926;-66
2021/10/18 05:06:01;;;;;;;;;;;;;;;;;;5024712;28;19925;-66
2021/10/18 05:08:28;;;;;;;;;;;;;;;;;;5030803;28;20020;-69
2021/10/18 05:10:56;;;;;;;;;;;;;;;;;;5028777;28;20031;-67
2021/10/18 05:13:23;;;;;;;;;;;;;;;;;;5022958;28;19925;-68
2021/10/18 05:15:52;;;;;;;;;;;;;;;;;;5028748;28;19929;-66
2021/10/18 05:18:19;;;;;;;;;;;;;;;;;;5031647;28;20016;-67
2021/10/18 05:20:46;;;;;;;;;;;;;;;;;;5024845;28;20039;-66
2021/10/18 05:23:13;;;;;;;;;;;;;;;;;;5032025;28;20289;-68
2021/10/18 05:25:40;;;;;;;;;;;;;;;;;;5029375;28;19925;-67
2021/10/18 05:28:08;;;;;;;;;;;;;;;;;;5035208;28;19931;-68
2021/10/18 05:30:35;;;;;;;;;;;;;;;;;;5028131;28;20352;-66
2021/10/18 05:33:02;;;;;;;;;;;;;;;;;;5025777;28;19925;-67
2021/10/18 05:35:29;;;;;;;;;;;;;;;;;;5031182;28;20396;-66
2021/10/18 05:37:56;;;;;;;;;;;;;;;;;;5038791;28;19926;-67
2021/10/18 05:40:23;;;;;;;;;;;;;;;;;;5034960;28;19965;-67
2021/10/18 05:42:50;;;;;;;;;;;;;;;;;;5031884;28;20308;-67
2021/10/18 05:45:17;;;;;;;;;;;;;;;;;;5031666;28;19931;-68
2021/10/18 05:47:44;;;;;;;;;;;;;;;;;;5025610;28;20181;-68
2021/10/18 05:50:11;;;;;;;;;;;;;;;;;;5034635;28;19925;-67
2021/10/18 05:52:39;;;;;;;;;;;;;;;;;;5027323;28;19936;-67
2021/10/18 05:55:06;;;;;;;;;;;;;;;;;;5028850;28;19947;-67
2021/10/18 05:57:33;;;;;;;;;;;;;;;;;;5028080;28;19926;-67
2021/10/18 06:00:00;;;;;;;;;;;;;;;;;;5032228;28;19929;-67
2021/10/18 06:02:27;;;;;;;;;;;;;;;;;;5031452;28;19932;-67
2021/10/18 06:04:54;;;;;;;;;;;;;;;;;;5031766;28;19932;-67
2021/10/18 06:07:21;;;;;;;;;;;;;;;;;;5031833;28;20019;-67
2021/10/18 06:09:48;;;;;;;;;;;;;;;;;;5031850;28;19925;-67
2021/10/18 06:12:15;;;;;;;;;;;;;;;;;;5031627;28;19933;-66
2021/10/18 06:14:42;;;;;;;;;;;;;;;;;;5029344;28;21305;-66
2021/10/18 06:17:09;;;;;;;;;;;;;;;;;;5026958;28;19931;-66
2021/10/18 06:19:36;;;;;;;;;;;;;;;;;;5033713;28;19972;-65
2021/10/18 06:22:03;;;;;;;;;;;;;;;;;;5030379;28;19929;-66
2021/10/18 06:24:30;;;;;;;;;;;;;;;;;;5027432;28;19925;-67
2021/10/18 06:26:57;;;;;;;;;;;;;;;;;;5028842;28;19925;-67
2021/10/18 06:29:25;;;;;;;;;;;;;;;;;;5030377;28;19932;-67
2021/10/18 06:31:52;;;;;;;;;;;;;;;;;;5026565;28;19971;-68
2021/10/18 06:34:19;;;;;;;;;;;;;;;;;;5029635;28;20490;-68
2021/10/18 06:36:46;;;;;;;;;;;;;;;;;;5032983;28;19934;-68
2021/10/18 06:39:13;;;;;;;;;;;;;;;;;;5034916;28;19986;-69
2021/10/18 06:41:40;;;;;;;;;;;;;;;;;;5028786;28;20648;-68
2021/10/18 06:44:07;;;;;;;;;;;;;;;;;;5027597;28;20286;-67
2021/10/18 06:46:34;;;;;;;;;;;;;;;;;;5022560;28;19932;-68
2021/10/18 06:49:01;;;;;;;;;;;;;;;;;;5012510;28;19941;-68
2021/10/18 06:51:32;;;;;;;;;;;;;;;;;;5028301;28;19929;-67
2021/10/18 06:53:59;;;;;;;;;;;;;;;;;;5026228;28;20007;-67
2021/10/18 06:56:26;;;;;;;;;;;;;;;;;;5022127;28;19925;-67
2021/10/18 06:58:53;;;;;;;;;;;;;;;;;;5017785;28;20274;-68
2021/10/18 07:01:20;;;;;;;;;;;;;;;;;;5026510;28;20106;-67
2021/10/18 07:03:47;;;;;;;;;;;;;;;;;;5030400;28;19929;-68
2021/10/18 07:06:14;;;;;;;;;;;;;;;;;;5027233;28;19925;-68
2021/10/18 07:08:41;;;;;;;;;;;;;;;;;;5026994;28;21151;-68
2021/10/18 07:11:08;;;;;;;;;;;;;;;;;;5027832;28;19925;-68
2021/10/18 07:13:35;;;;;;;;;;;;;;;;;;5026747;28;19929;-67
2021/10/18 07:16:02;;;;;;;;;;;;;;;;;;5025867;28;20417;-68
2021/10/18 07:18:29;;;;;;;;;;;;;;;;;;5026221;28;19935;-67
2021/10/18 07:20:56;;;;;;;;;;;;;;;;;;5024313;28;19932;-68
2021/10/18 07:23:23;;;;;;;;;;;;;;;;;;5033799;28;19931;-67
2021/10/18 07:25:50;;;;;;;;;;;;;;;;;;5025589;28;20411;-67
2021/10/18 07:28:17;;;;;;;;;;;;;;;;;;5032244;28;20304;-67
2021/10/18 07:30:47;;;;;;;;;;;;;;;;;;5026623;28;19925;-68
2021/10/18 07:33:15;;;;;;;;;;;;;;;;;;5023073;28;19948;-68
2021/10/18 07:35:42;;;;;;;;;;;;;;;;;;5021810;28;19929;-66
2021/10/18 07:38:11;;;;;;;;;;;;;;;;;;5027679;28;20365;-67
2021/10/18 07:40:39;;;;;;;;;;;;;;;;;;5024689;28;20032;-68
2021/10/18 07:43:07;;;;;;;;;;;;;;;;;;5030424;28;19930;-68
2021/10/18 07:45:34;;;;;;;;;;;;;;;;;;5032416;28;19925;-68
2021/10/18 07:48:01;;;;;;;;;;;;;;;;;;5030742;28;19925;-67
2021/10/18 07:50:28;;;;;;;;;;;;;;;;;;5033466;28;19931;-68
2021/10/18 07:52:55;;;;;;;;;;;;;;;;;;5029470;28;19932;-67
2021/10/18 07:55:22;;;;;;;;;;;;;;;;;;5036868;28;20309;-68
2021/10/18 07:57:49;;;;;;;;;;;;;;;;;;5026391;28;19925;-68
2021/10/18 08:00:16;;;;;;;;;;;;;;;;;;5019997;28;20389;-68
2021/10/18 08:02:43;;;;;;;;;;;;;;;;;;5031312;28;19925;-68
2021/10/18 08:05:15;;;;;;;;;;;;;;;;;;5032299;28;19936;-69
2021/10/18 08:07:42;;;;;;;;;;;;;;;;;;5027033;28;20447;-68
2021/10/18 08:10:12;;;;;;;;;;;;;;;;;;5026673;28;19936;-66
2021/10/18 08:12:39;;;;;;;;;;;;;;;;;;5022822;28;19929;-66
2021/10/18 08:15:06;;;;;;;;;;;;;;;;;;5028706;28;19925;-67
2021/10/18 08:17:33;;;;;;;;;;;;;;;;;;5026956;28;20301;-68
2021/10/18 08:20:00;;;;;;;;;;;;;;;;;;5029257;28;19947;-67
2021/10/18 08:22:27;;;;;;;;;;;;;;;;;;5022615;28;20321;-67
2021/10/18 08:24:54;;;;;;;;;;;;;;;;;;5029035;28;20020;-67
2021/10/18 08:27:21;;;;;;;;;;;;;;;;;;5024701;28;20511;-66
2021/10/18 08:29:48;;;;;;;;;;;;;;;;;;5030936;28;20270;-67
2021/10/18 08:32:15;;;;;;;;;;;;;;;;;;5025989;28;19925;-66
2021/10/18 08:34:42;;;;;;;;;;;;;;;;;;5025016;28;19925;-65
2021/10/18 08:37:09;;;;;;;;;;;;;;;;;;5034564;28;20011;-66
2021/10/18 08:42:22;;;;;;;;;;;;;;;;;;5022199;28;19992;-68
2021/10/18 08:44:49;;;;;;;;;;;;;;;;;;5028098;28;20193;-67
2021/10/18 08:47:16;;;;;;;;;;;;;;;;;;5027768;28;19972;-67
2021/10/18 08:49:43;;;;;;;;;;;;;;;;;;5027904;28;19932;-67
2021/10/18 08:52:11;;;;;;;;;;;;;;;;;;5027915;28;19933;-67
2021/10/18 08:54:38;;;;;;;;;;;;;;;;;;5032289;28;19944;-67
2021/10/18 08:57:05;;;;;;;;;;;;;;;;;;5030607;28;19929;-69
2021/10/18 08:59:32;;;;;;;;;;;;;;;;;;5030351;28;20254;-67
2021/10/18 09:01:59;;;;;;;;;;;;;;;;;;5025818;28;19999;-68
2021/10/18 09:04:26;;;;;;;;;;;;;;;;;;5030771;28;19925;-68
2021/10/18 09:06:53;;;;;;;;;;;;;;;;;;5029412;28;20292;-68
2021/10/18 09:09:23;;;;;;;;;;;;;;;;;;5026734;28;20301;-67
2021/10/18 09:11:50;;;;;;;;;;;;;;;;;;5023353;28;19925;-69
2021/10/18 09:14:17;;;;;;;;;;;;;;;;;;5032608;28;19929;-67
2021/10/18 09:16:44;;;;;;;;;;;;;;;;;;5031624;28;20394;-68
2021/10/18 09:19:11;;;;;;;;;;;;;;;;;;5029707;28;19933;-68
2021/10/18 09:21:38;;;;;;;;;;;;;;;;;;5033174;28;19931;-67
2021/10/18 09:24:05;;;;;;;;;;;;;;;;;;5033121;28;20735;-67
2021/10/18 09:26:32;;;;;;;;;;;;;;;;;;5034742;28;20032;-68
2021/10/18 09:28:59;;;;;;;;;;;;;;;;;;5031390;28;19976;-67
2021/10/18 09:31:28;;;;;;;;;;;;;;;;;;5030790;28;19925;-69
2021/10/18 09:33:57;;;;;;;;;;;;;;;;;;5031347;28;19929;-67
2021/10/18 09:36:24;;;;;;;;;;;;;;;;;;5029348;28;19931;-68
2021/10/18 09:38:51;;;;;;;;;;;;;;;;;;5027074;28;20196;-68
2021/10/18 09:41:18;;;;;;;;;;;;;;;;;;5030587;28;19925;-66
2021/10/18 09:43:50;;;;;;;;;;;;;;;;;;5042452;22;20040;-61
2021/10/18 09:46:18;;;;;;;;;;;;;;;;;;5024150;28;19932;-61
2021/10/18 10:52:01;;;;;;;;;;;;;;;;;;5022997;28;19931;-59
2021/10/18 10:54:28;;;;;;;;;;;;;;;;;;5029714;28;19932;-57
2021/10/18 10:56:59;;;;;;;;;;;;;;;;;;5025888;28;19930;-61
2021/10/18 10:59:28;;;;;;;;;;;;;;;;;;5027804;28;19925;-61
2021/10/18 11:01:55;;;;;;;;;;;;;;;;;;5019348;28;19952;-61
2021/10/18 11:04:22;;;;;;;;;;;;;;;;;;5022249;28;20397;-61
2021/10/18 11:06:49;;;;;;;;;;;;;;;;;;5025382;28;19955;-61
2021/10/18 11:09:16;;;;;;;;;;;;;;;;;;5022915;28;19933;-61
2021/10/18 11:11:43;;;;;;;;;;;;;;;;;;5024559;28;20306;-62
2021/10/18 11:14:10;;;;;;;;;;;;;;;;;;5029042;28;19943;-61
2021/10/18 11:16:37;;;;;;;;;;;;;;;;;;5026425;28;20300;-60
2021/10/18 11:19:04;;;;;;;;;;;;;;;;;;5028344;28;19929;-61
2021/10/18 11:21:32;;;;;;;;;;;;;;;;;;5022112;28;19933;-61
2021/10/18 11:23:59;;;;;;;;;;;;;;;;;;5022883;28;19932;-60
2021/10/18 11:26:26;;;;;;;;;;;;;;;;;;5028278;28;20024;-58
2021/10/18 11:28:53;;;;;;;;;;;;;;;;;;5023541;28;19929;-60
2021/10/18 11:31:20;;;;;;;;;;;;;;;;;;5022337;28;19932;-60
2021/10/18 11:33:47;;;;;;;;;;;;;;;;;;5026030;28;19925;-60
2021/10/18 11:36:14;;;;;;;;;;;;;;;;;;5027931;28;19925;-60
2021/10/18 11:38:41;;;;;;;;;;;;;;;;;;5020468;28;19932;-61
2021/10/18 11:41:08;;;;;;;;;;;;;;;;;;5024885;28;19937;-61
2021/10/18 11:43:35;;;;;;;;;;;;;;;;;;5029262;28;19925;-61
2021/10/18 11:46:02;;;;;;;;;;;;;;;;;;5026935;28;19966;-61
2021/10/18 11:48:29;;;;;;;;;;;;;;;;;;5024362;28;20292;-61
2021/10/18 11:50:58;;;;;;;;;;;;;;;;;;5019514;28;19940;-61
2021/10/18 11:53:25;;;;;;;;;;;;;;;;;;5022832;28;20474;-62
2021/10/18 11:55:52;;;;;;;;;;;;;;;;;;5021264;28;19929;-62
2021/10/18 11:58:19;;;;;;;;;;;;;;;;;;5022193;28;20407;-63
2021/10/18 12:00:46;;;;;;;;;;;;;;;;;;5024628;28;19929;-63
2021/10/18 12:03:13;;;;;;;;;;;;;;;;;;5017121;28;20004;-62
2021/10/18 12:05:42;;;;;;;;;;;;;;;;;;5022216;28;19932;-62
2021/10/18 12:08:09;;;;;;;;;;;;;;;;;;5025369;28;19925;-60
2021/10/18 12:10:36;;;;;;;;;;;;;;;;;;5027432;28;19936;-60
2021/10/18 12:13:02;;;;;;;;;;;;;;;;;;5026824;28;20424;-61
2021/10/18 12:15:29;;;;;;;;;;;;;;;;;;5018376;28;19929;-60
2021/10/18 12:17:56;;;;;;;;;;;;;;;;;;5023175;28;19936;-60
2021/10/18 12:20:23;;;;;;;;;;;;;;;;;;5020674;28;19944;-61
2021/10/18 12:22:50;;;;;;;;;;;;;;;;;;5027325;28;19932;-61
2021/10/18 12:25:17;;;;;;;;;;;;;;;;;;5023408;28;20353;-60
2021/10/18 12:27:44;;;;;;;;;;;;;;;;;;5027973;28;19933;-61
2021/10/18 12:30:11;;;;;;;;;;;;;;;;;;5029605;28;19932;-60
2021/10/18 12:32:38;;;;;;;;;;;;;;;;;;5028239;28;20004;-61
2021/10/18 12:35:05;;;;;;;;;;;;;;;;;;5028472;28;19925;-62
2021/10/18 12:37:32;;;;;;;;;;;;;;;;;;5032579;28;19925;-61
2021/10/18 12:39:59;;;;;;;;;;;;;;;;;;5027553;28;19932;-61
2021/10/18 12:42:27;;;;;;;;;;;;;;;;;;5028977;28;19936;-61
2021/10/18 12:44:53;;;;;;;;;;;;;;;;;;5027257;28;20518;-60
2021/10/18 12:47:23;;;;;;;;;;;;;;;;;;5029610;28;19926;-62
2021/10/18 12:49:53;;;;;;;;;;;;;;;;;;5028736;28;19936;-62
2021/10/18 12:52:20;;;;;;;;;;;;;;;;;;5029471;28;20048;-60
2021/10/18 12:54:47;;;;;;;;;;;;;;;;;;5024736;28;19931;-60
2021/10/18 12:57:14;;;;;;;;;;;;;;;;;;5029939;28;19925;-62
2021/10/18 12:59:41;;;;;;;;;;;;;;;;;;5024226;28;20354;-62
2021/10/18 13:02:08;;;;;;;;;;;;;;;;;;5025438;28;19932;-61
2021/10/18 13:04:35;;;;;;;;;;;;;;;;;;5023434;28;20036;-61
2021/10/18 13:07:02;;;;;;;;;;;;;;;;;;5021355;28;19929;-61
2021/10/18 13:09:29;;;;;;;;;;;;;;;;;;5050195;22;19924;-68
2021/10/18 13:11:56;;;;;;;;;;;;;;;;;;5035563;28;20004;-68
2021/10/18 13:14:23;;;;;;;;;;;;;;;;;;5037384;28;19925;-68
2021/10/18 13:16:49;;;;;;;;;;;;;;;;;;5036862;28;20320;-68
2021/10/18 13:19:16;;;;;;;;;;;;;;;;;;5035511;28;20304;-68
2021/10/18 13:21:43;;;;;;;;;;;;;;;;;;5039066;28;20016;-68
2021/10/18 13:24:10;;;;;;;;;;;;;;;;;;5034941;28;20464;-70
2021/10/18 13:26:37;;;;;;;;;;;;;;;;;;5036382;28;19947;-67
2021/10/18 13:29:04;;;;;;;;;;;;;;;;;;5032906;28;20035;-69
2021/10/18 13:31:31;;;;;;;;;;;;;;;;;;5034242;28;19928;-68
2021/10/18 13:34:00;;;;;;;;;;;;;;;;;;5033458;28;19925;-68
2021/10/18 13:36:26;;;;;;;;;;;;;;;;;;5030839;28;19932;-68
2021/10/18 13:38:53;;;;;;;;;;;;;;;;;;5033368;28;19931;-68
2021/10/18 13:41:20;;;;;;;;;;;;;;;;;;5034536;28;19926;-70
2021/10/18 13:43:47;;;;;;;;;;;;;;;;;;5030360;28;19967;-69
2021/10/18 13:46:14;;;;;;;;;;;;;;;;;;5036237;28;19932;-68
2021/10/18 13:48:41;;;;;;;;;;;;;;;;;;5029933;28;19925;-67
2021/10/18 13:51:08;;;;;;;;;;;;;;;;;;5028160;28;19944;-67
2021/10/18 13:53:35;;;;;;;;;;;;;;;;;;5028450;28;19932;-68
2021/10/18 13:56:02;;;;;;;;;;;;;;;;;;5032010;28;20392;-66
2021/10/18 13:58:31;;;;;;;;;;;;;;;;;;5027250;28;20348;-68
2021/10/18 14:00:58;;;;;;;;;;;;;;;;;;5030764;28;19925;-67
2021/10/18 14:03:25;;;;;;;;;;;;;;;;;;5031530;28;20031;-67
2021/10/18 14:05:51;;;;;;;;;;;;;;;;;;5023734;28;19925;-68
2021/10/18 14:08:18;;;;;;;;;;;;;;;;;;5028445;28;19925;-66
2021/10/18 14:10:45;;;;;;;;;;;;;;;;;;5031145;28;20324;-67
2021/10/18 14:13:12;;;;;;;;;;;;;;;;;;5031810;28;19925;-67
2021/10/18 14:15:39;;;;;;;;;;;;;;;;;;5030280;28;19925;-66
2021/10/18 14:18:06;;;;;;;;;;;;;;;;;;5030817;28;19925;-68
2021/10/18 14:20:33;;;;;;;;;;;;;;;;;;5030026;28;20382;-68
2021/10/18 14:23:00;;;;;;;;;;;;;;;;;;5032977;28;19925;-68
2021/10/18 14:25:29;;;;;;;;;;;;;;;;;;5036368;28;20028;-67
2021/10/18 14:27:56;;;;;;;;;;;;;;;;;;5035700;28;19972;-69
2021/10/18 14:30:23;;;;;;;;;;;;;;;;;;5033918;28;19925;-68
2021/10/18 14:32:53;;;;;;;;;;;;;;;;;;5036422;28;19932;-68
2021/10/18 14:35:20;;;;;;;;;;;;;;;;;;5036696;28;19979;-67
2021/10/18 14:37:47;;;;;;;;;;;;;;;;;;5035425;28;19984;-67
2021/10/18 14:40:14;;;;;;;;;;;;;;;;;;5033762;28;19929;-68
2021/10/18 14:42:41;;;;;;;;;;;;;;;;;;5034037;28;19929;-67
2021/10/18 14:45:08;;;;;;;;;;;;;;;;;;5033620;28;19939;-67
2021/10/18 14:47:35;;;;;;;;;;;;;;;;;;5034329;28;19935;-68
2021/10/18 14:50:02;;;;;;;;;;;;;;;;;;5030382;28;19929;-69
2021/10/18 14:52:29;;;;;;;;;;;;;;;;;;5032011;28;19925;-68
2021/10/18 14:54:56;;;;;;;;;;;;;;;;;;5029524;28;19935;-68
2021/10/18 14:57:24;;;;;;;;;;;;;;;;;;5030039;28;20309;-67
2021/10/18 14:59:51;;;;;;;;;;;;;;;;;;5030007;28;19925;-70
2021/10/18 15:02:18;;;;;;;;;;;;;;;;;;5031664;28;19968;-67
2021/10/18 15:04:45;;;;;;;;;;;;;;;;;;5031380;28;20377;-69
2021/10/18 15:07:13;;;;;;;;;;;;;;;;;;5021132;28;19925;-68
2021/10/18 15:09:41;;;;;;;;;;;;;;;;;;5026891;28;19925;-68
2021/10/18 15:12:07;;;;;;;;;;;;;;;;;;5030696;28;20036;-68
2021/10/18 15:14:34;;;;;;;;;;;;;;;;;;5031536;28;19929;-68
2021/10/18 15:17:02;;;;;;;;;;;;;;;;;;5031086;28;19929;-68
2021/10/18 15:19:29;;;;;;;;;;;;;;;;;;5026618;28;19932;-67
2021/10/18 15:21:56;;;;;;;;;;;;;;;;;;5031540;28;20003;-68
2021/10/18 15:24:25;;;;;;;;;;;;;;;;;;5027499;28;19932;-67
2021/10/18 15:26:52;;;;;;;;;;;;;;;;;;5030753;28;19933;-67
2021/10/18 15:29:18;;;;;;;;;;;;;;;;;;5024858;28;19932;-67
2021/10/18 15:31:46;;;;;;;;;;;;;;;;;;5031419;28;19929;-66
2021/10/18 15:34:13;;;;;;;;;;;;;;;;;;5030469;28;19972;-67
2021/10/18 15:36:40;;;;;;;;;;;;;;;;;;5031267;28;20309;-67
2021/10/18 15:39:07;;;;;;;;;;;;;;;;;;5030173;28;19925;-66
2021/10/18 15:41:34;;;;;;;;;;;;;;;;;;5024841;28;19932;-66
2021/10/18 15:44:01;;;;;;;;;;;;;;;;;;5030533;28;19925;-67
2021/10/18 15:46:28;;;;;;;;;;;;;;;;;;5032195;28;19929;-67
2021/10/18 15:48:55;;;;;;;;;;;;;;;;;;5031567;28;19940;-67
2021/10/18 15:51:21;;;;;;;;;;;;;;;;;;5031895;28;20023;-68
2021/10/18 15:53:48;;;;;;;;;;;;;;;;;;5026938;28;20387;-67
2021/10/18 15:56:17;;;;;;;;;;;;;;;;;;5030293;28;19929;-68
2021/10/18 15:58:44;;;;;;;;;;;;;;;;;;5029305;28;19925;-67
2021/10/18 16:01:11;;;;;;;;;;;;;;;;;;5028553;28;19925;-67
2021/10/18 16:03:38;;;;;;;;;;;;;;;;;;5028375;28;19935;-69
2021/10/18 16:06:05;;;;;;;;;;;;;;;;;;5028664;28;20400;-68
2021/10/18 16:08:32;;;;;;;;;;;;;;;;;;5026116;28;19925;-67
2021/10/18 16:10:59;;;;;;;;;;;;;;;;;;5030663;28;19925;-67
2021/10/18 16:13:26;;;;;;;;;;;;;;;;;;5030709;28;20389;-69
2021/10/18 16:15:54;;;;;;;;;;;;;;;;;;5031042;28;19925;-67
2021/10/18 16:18:21;;;;;;;;;;;;;;;;;;5026026;28;19929;-67
2021/10/18 16:20:48;;;;;;;;;;;;;;;;;;5026414;28;19925;-67
2021/10/18 16:23:15;;;;;;;;;;;;;;;;;;5021840;28;19929;-68
2021/10/18 16:25:44;;;;;;;;;;;;;;;;;;5027966;28;19931;-67
2021/10/18 16:28:11;;;;;;;;;;;;;;;;;;5024450;28;19995;-68
2021/10/18 16:30:38;;;;;;;;;;;;;;;;;;5023344;28;20019;-67
2021/10/18 16:33:05;;;;;;;;;;;;;;;;;;5027237;28;19935;-67
2021/10/18 16:35:32;;;;;;;;;;;;;;;;;;5024327;28;19936;-67
2021/10/18 16:37:59;;;;;;;;;;;;;;;;;;5027387;28;20014;-68
2021/10/18 16:40:26;;;;;;;;;;;;;;;;;;5023443;28;19940;-67
2021/10/18 16:42:53;;;;;;;;;;;;;;;;;;5032348;28;19935;-67
2021/10/18 16:45:20;;;;;;;;;;;;;;;;;;5033195;28;19935;-68
2021/10/18 16:47:47;;;;;;;;;;;;;;;;;;5026958;28;19932;-66
2021/10/18 16:50:15;;;;;;;;;;;;;;;;;;5031291;28;19925;-66
2021/10/18 16:52:42;;;;;;;;;;;;;;;;;;5036302;28;19949;-68
2021/10/18 16:55:09;;;;;;;;;;;;;;;;;;5032932;28;20287;-68
2021/10/18 16:57:36;;;;;;;;;;;;;;;;;;5036599;28;19929;-68
2021/10/18 17:00:03;;;;;;;;;;;;;;;;;;5041173;28;20015;-66
2021/10/18 17:02:30;;;;;;;;;;;;;;;;;;5039810;28;19925;-67
2021/10/18 17:04:57;;;;;;;;;;;;;;;;;;5038630;28;20009;-67
2021/10/18 17:07:24;;;;;;;;;;;;;;;;;;5038691;28;19998;-69
2021/10/18 17:09:52;;;;;;;;;;;;;;;;;;5036695;28;19925;-67
2021/10/18 17:12:19;;;;;;;;;;;;;;;;;;5039994;28;19941;-67
2021/10/18 17:14:48;;;;;;;;;;;;;;;;;;5036999;28;19933;-70
2021/10/18 17:17:15;;;;;;;;;;;;;;;;;;5042407;28;19929;-70
2021/10/18 17:19:42;;;;;;;;;;;;;;;;;;5039152;28;19929;-69
2021/10/18 17:22:10;;;;;;;;;;;;;;;;;;5040232;28;19925;-69
2021/10/18 17:24:37;;;;;;;;;;;;;;;;;;5042734;28;19931;-68
2021/10/18 17:27:07;;;;;;;;;;;;;;;;;;5030988;28;20024;-68
2021/10/18 17:29:34;;;;;;;;;;;;;;;;;;5033563;28;20344;-68
2021/10/18 17:32:03;;;;;;;;;;;;;;;;;;5038258;28;20369;-69
2021/10/18 17:34:31;;;;;;;;;;;;;;;;;;5035942;28;20016;-69
2021/10/18 17:36:58;;;;;;;;;;;;;;;;;;5032512;28;19925;-69
2021/10/18 17:39:26;;;;;;;;;;;;;;;;;;5034408;28;19978;-70
2021/10/18 17:41:53;;;;;;;;;;;;;;;;;;5038231;28;20321;-68
2021/10/18 17:44:20;;;;;;;;;;;;;;;;;;5036626;28;20381;-69
2021/10/18 17:46:47;;;;;;;;;;;;;;;;;;5030074;28;19925;-67
2021/10/18 17:49:14;;;;;;;;;;;;;;;;;;5038374;28;19924;-68
2021/10/18 17:51:41;;;;;;;;;;;;;;;;;;5035539;28;19925;-68